sensor_id;sensor_type;location;lat;lon;timestamp;temperature;humidity
6662;DHT22;3367;48.714;8.994;2022-08-01T00:00:15;19.00;1.00
6662;DHT22;3367;48.714;8.994;2022-08-01T00:02:42;18.90;1.00
6662;DHT22;3367;48.714;8.994;2022-08-01T00:05:09;18.90;1.00
6662;DHT22;3367;48.714;8.994;2022-08-01T00:07:37;18.80;1.00
6662;DHT22;3367;48.714;8.994;2022-08-01T00:10:07;18.70;1.00
6662;DHT22;3367;48.714;8.994;2022-08-01T00:12:34;18.70;1.00
6662;DHT22;3367;48.714;8.994;2022-08-01T00:15:01;18.80;1.00
6662;DHT22;3367;48.714;8.994;2022-08-01T00:17:28;18.70;1.00
6662;DHT22;3367;48.714;8.994;2022-08-01T00:19:55;18.60;1.00
6662;DHT22;3367;48.714;8.994;2022-08-01T00:22:21;18.60;1.00
6662;DHT22;3367;48.714;8.994;2022-08-01T00:24:50;18.60;1.00
6662;DHT22;3367;48.714;8.994;2022-08-01T00:27:17;18.50;1.00
6662;DHT22;3367;48.714;8.994;2022-08-01T00:29:43;18.60;1.00
6662;DHT22;3367;48.714;8.994;2022-08-01T00:32:10;18.50;1.00
6662;DHT22;3367;48.714;8.994;2022-08-01T00:34:37;18.50;1.00
6662;DHT22;3367;48.714;8.994;2022-08-01T00:37:04;18.40;1.00
6662;DHT22;3367;48.714;8.994;2022-08-01T00:39:30;18.30;1.00
6662;DHT22;3367;48.714;8.994;2022-08-01T00:41:59;18.20;1.00
6662;DHT22;3367;48.714;8.994;2022-08-01T00:44:26;18.30;1.00
6662;DHT22;3367;48.714;8.994;2022-08-01T00:46:53;18.20;1.00
6662;DHT22;3367;48.714;8.994;2022-08-01T00:49:20;18.20;1.00
6662;DHT22;3367;48.714;8.994;2022-08-01T00:51:47;18.00;1.00
6662;DHT22;3367;48.714;8.994;2022-08-01T00:54:14;18.00;1.00
6662;DHT22;3367;48.714;8.994;2022-08-01T00:56:41;18.00;1.00
6662;DHT22;3367;48.714;8.994;2022-08-01T00:59:11;18.00;1.00
6662;DHT22;3367;48.714;8.994;2022-08-01T01:01:38;18.10;1.00
6662;DHT22;3367;48.714;8.994;2022-08-01T01:04:05;18.00;1.00
6662;DHT22;3367;48.714;8.994;2022-08-01T01:06:39;18.00;1.00
6662;DHT22;3367;48.714;8.994;2022-08-01T01:09:24;17.90;1.00
6662;DHT22;3367;48.714;8.994;2022-08-01T01:12:01;18.00;1.00
6662;DHT22;3367;48.714;8.994;2022-08-01T01:14:35;17.90;1.00
6662;DHT22;3367;48.714;8.994;2022-08-01T01:17:06;17.90;1.00
6662;DHT22;3367;48.714;8.994;2022-08-01T01:19:41;17.80;1.00
6662;DHT22;3367;48.714;8.994;2022-08-01T01:22:25;17.80;1.00
6662;DHT22;3367;48.714;8.994;2022-08-01T01:25:09;17.80;1.00
6662;DHT22;3367;48.714;8.994;2022-08-01T01:27:49;17.70;1.00
6662;DHT22;3367;48.714;8.994;2022-08-01T01:30:19;17.70;1.00
6662;DHT22;3367;48.714;8.994;2022-08-01T01:32:50;17.70;1.00
6662;DHT22;3367;48.714;8.994;2022-08-01T01:35:24;17.70;1.00
6662;DHT22;3367;48.714;8.994;2022-08-01T01:37:56;17.70;1.00
6662;DHT22;3367;48.714;8.994;2022-08-01T01:40:25;17.60;1.00
6662;DHT22;3367;48.714;8.994;2022-08-01T01:42:55;17.60;1.00
6662;DHT22;3367;48.714;8.994;2022-08-01T01:45:25;17.70;1.00
6662;DHT22;3367;48.714;8.994;2022-08-01T01:47:52;17.70;1.00
6662;DHT22;3367;48.714;8.994;2022-08-01T01:50:21;17.70;1.00
6662;DHT22;3367;48.714;8.994;2022-08-01T01:52:50;17.70;1.00
6662;DHT22;3367;48.714;8.994;2022-08-01T01:55:19;17.70;1.00
6662;DHT22;3367;48.714;8.994;2022-08-01T01:57:48;17.80;1.00
6662;DHT22;3367;48.714;8.994;2022-08-01T02:00:16;17.70;1.00
6662;DHT22;3367;48.714;8.994;2022-08-01T02:02:46;17.70;1.00
6662;DHT22;3367;48.714;8.994;2022-08-01T02:05:13;17.70;1.00
6662;DHT22;3367;48.714;8.994;2022-08-01T02:07:41;17.60;1.00
6662;DHT22;3367;48.714;8.994;2022-08-01T02:10:10;17.70;1.00
6662;DHT22;3367;48.714;8.994;2022-08-01T02:12:41;17.50;1.00
6662;DHT22;3367;48.714;8.994;2022-08-01T02:15:11;17.40;1.00
6662;DHT22;3367;48.714;8.994;2022-08-01T02:17:42;17.40;1.00
6662;DHT22;3367;48.714;8.994;2022-08-01T02:20:12;17.40;1.00
6662;DHT22;3367;48.714;8.994;2022-08-01T02:22:42;17.30;1.00
6662;DHT22;3367;48.714;8.994;2022-08-01T02:25:11;17.30;1.00
6662;DHT22;3367;48.714;8.994;2022-08-01T02:27:42;17.50;1.00
6662;DHT22;3367;48.714;8.994;2022-08-01T02:30:12;17.50;1.00
6662;DHT22;3367;48.714;8.994;2022-08-01T02:32:42;17.50;1.00
6662;DHT22;3367;48.714;8.994;2022-08-01T02:35:17;17.60;1.00
6662;DHT22;3367;48.714;8.994;2022-08-01T02:37:47;17.50;1.00
6662;DHT22;3367;48.714;8.994;2022-08-01T02:40:16;17.50;1.00
6662;DHT22;3367;48.714;8.994;2022-08-01T02:42:47;17.40;1.00
6662;DHT22;3367;48.714;8.994;2022-08-01T02:45:17;17.40;1.00
6662;DHT22;3367;48.714;8.994;2022-08-01T02:47:45;17.40;1.00
6662;DHT22;3367;48.714;8.994;2022-08-01T02:50:16;17.40;1.00
6662;DHT22;3367;48.714;8.994;2022-08-01T02:52:47;17.50;1.00
6662;DHT22;3367;48.714;8.994;2022-08-01T02:55:15;17.60;72.90
6662;DHT22;3367;48.714;8.994;2022-08-01T02:57:44;17.60;1.00
6662;DHT22;3367;48.714;8.994;2022-08-01T03:00:11;17.50;1.00
6662;DHT22;3367;48.714;8.994;2022-08-01T03:02:39;17.30;1.00
6662;DHT22;3367;48.714;8.994;2022-08-01T03:05:07;17.30;1.00
6662;DHT22;3367;48.714;8.994;2022-08-01T03:07:36;17.20;1.00
6662;DHT22;3367;48.714;8.994;2022-08-01T03:10:05;17.10;1.00
6662;DHT22;3367;48.714;8.994;2022-08-01T03:12:33;17.10;1.00
6662;DHT22;3367;48.714;8.994;2022-08-01T03:15:02;17.10;1.00
6662;DHT22;3367;48.714;8.994;2022-08-01T03:17:32;17.10;1.00
6662;DHT22;3367;48.714;8.994;2022-08-01T03:20:02;17.00;1.00
6662;DHT22;3367;48.714;8.994;2022-08-01T03:22:30;17.00;1.00
6662;DHT22;3367;48.714;8.994;2022-08-01T03:25:01;17.00;1.00
6662;DHT22;3367;48.714;8.994;2022-08-01T03:27:29;17.00;1.00
6662;DHT22;3367;48.714;8.994;2022-08-01T03:29:56;17.00;1.00
6662;DHT22;3367;48.714;8.994;2022-08-01T03:32:24;16.90;1.00
6662;DHT22;3367;48.714;8.994;2022-08-01T03:34:53;16.90;1.00
6662;DHT22;3367;48.714;8.994;2022-08-01T03:37:24;16.90;1.00
6662;DHT22;3367;48.714;8.994;2022-08-01T03:39:57;16.90;1.00
6662;DHT22;3367;48.714;8.994;2022-08-01T03:42:31;16.80;1.00
6662;DHT22;3367;48.714;8.994;2022-08-01T03:45:02;16.80;1.00
6662;DHT22;3367;48.714;8.994;2022-08-01T03:47:32;16.70;1.00
6662;DHT22;3367;48.714;8.994;2022-08-01T03:50:02;16.80;1.00
6662;DHT22;3367;48.714;8.994;2022-08-01T03:52:31;16.70;1.00
6662;DHT22;3367;48.714;8.994;2022-08-01T03:55:02;16.70;1.00
6662;DHT22;3367;48.714;8.994;2022-08-01T03:57:32;16.70;66.10
6662;DHT22;3367;48.714;8.994;2022-08-01T03:59:59;16.70;1.00
6662;DHT22;3367;48.714;8.994;2022-08-01T04:02:27;16.60;1.00
6662;DHT22;3367;48.714;8.994;2022-08-01T04:04:55;16.60;1.00
6662;DHT22;3367;48.714;8.994;2022-08-01T04:07:23;16.60;1.00
6662;DHT22;3367;48.714;8.994;2022-08-01T04:09:50;16.60;1.00
6662;DHT22;3367;48.714;8.994;2022-08-01T04:12:18;16.60;99.90
6662;DHT22;3367;48.714;8.994;2022-08-01T04:14:46;16.60;46.20
6662;DHT22;3367;48.714;8.994;2022-08-01T04:17:14;16.60;23.50
6662;DHT22;3367;48.714;8.994;2022-08-01T04:19:41;16.60;8.80
6662;DHT22;3367;48.714;8.994;2022-08-01T04:22:09;16.60;99.90
6662;DHT22;3367;48.714;8.994;2022-08-01T04:24:36;16.60;1.00
6662;DHT22;3367;48.714;8.994;2022-08-01T04:27:08;16.60;90.90
6662;DHT22;3367;48.714;8.994;2022-08-01T04:29:37;16.70;99.90
6662;DHT22;3367;48.714;8.994;2022-08-01T04:32:07;16.60;1.00
6662;DHT22;3367;48.714;8.994;2022-08-01T04:34:36;16.60;1.00
6662;DHT22;3367;48.714;8.994;2022-08-01T04:37:07;16.60;1.00
6662;DHT22;3367;48.714;8.994;2022-08-01T04:39:37;16.60;7.90
6662;DHT22;3367;48.714;8.994;2022-08-01T04:42:05;16.50;11.90
6662;DHT22;3367;48.714;8.994;2022-08-01T04:44:32;16.50;32.60
6662;DHT22;3367;48.714;8.994;2022-08-01T04:47:00;16.40;71.90
6662;DHT22;3367;48.714;8.994;2022-08-01T04:49:30;16.40;99.90
6662;DHT22;3367;48.714;8.994;2022-08-01T04:51:57;16.40;99.90
6662;DHT22;3367;48.714;8.994;2022-08-01T04:54:25;16.40;99.90
6662;DHT22;3367;48.714;8.994;2022-08-01T04:56:53;16.50;99.90
6662;DHT22;3367;48.714;8.994;2022-08-01T04:59:21;16.50;99.90
6662;DHT22;3367;48.714;8.994;2022-08-01T05:02:06;16.50;99.90
6662;DHT22;3367;48.714;8.994;2022-08-01T05:04:35;16.60;99.90
6662;DHT22;3367;48.714;8.994;2022-08-01T05:07:03;16.70;99.90
6662;DHT22;3367;48.714;8.994;2022-08-01T05:09:30;16.90;99.90
6662;DHT22;3367;48.714;8.994;2022-08-01T05:11:57;17.00;99.90
6662;DHT22;3367;48.714;8.994;2022-08-01T05:14:25;17.10;87.90
6662;DHT22;3367;48.714;8.994;2022-08-01T05:16:57;17.20;66.80
6662;DHT22;3367;48.714;8.994;2022-08-01T05:19:25;17.30;46.70
6662;DHT22;3367;48.714;8.994;2022-08-01T05:21:54;17.50;51.70
6662;DHT22;3367;48.714;8.994;2022-08-01T05:24:22;17.70;1.00
6662;DHT22;3367;48.714;8.994;2022-08-01T05:26:54;17.70;1.00
6662;DHT22;3367;48.714;8.994;2022-08-01T05:29:21;17.80;99.90
6662;DHT22;3367;48.714;8.994;2022-08-01T05:31:48;17.90;89.20
6662;DHT22;3367;48.714;8.994;2022-08-01T05:34:15;18.10;66.30
6662;DHT22;3367;48.714;8.994;2022-08-01T05:36:43;18.20;1.00
6662;DHT22;3367;48.714;8.994;2022-08-01T05:39:12;18.50;1.00
6662;DHT22;3367;48.714;8.994;2022-08-01T05:41:39;19.00;1.00
6662;DHT22;3367;48.714;8.994;2022-08-01T05:44:06;19.60;1.00
6662;DHT22;3367;48.714;8.994;2022-08-01T05:46:34;20.30;1.00
6662;DHT22;3367;48.714;8.994;2022-08-01T05:49:05;20.90;1.00
6662;DHT22;3367;48.714;8.994;2022-08-01T05:51:32;21.40;1.00
6662;DHT22;3367;48.714;8.994;2022-08-01T05:53:59;21.80;1.00
6662;DHT22;3367;48.714;8.994;2022-08-01T05:56:29;22.30;1.00
6662;DHT22;3367;48.714;8.994;2022-08-01T05:59:01;22.80;1.00
6662;DHT22;3367;48.714;8.994;2022-08-01T06:01:28;23.20;1.00
6662;DHT22;3367;48.714;8.994;2022-08-01T06:03:55;23.60;1.00
6662;DHT22;3367;48.714;8.994;2022-08-01T06:06:22;23.80;1.00
6662;DHT22;3367;48.714;8.994;2022-08-01T06:08:49;23.80;1.00
6662;DHT22;3367;48.714;8.994;2022-08-01T06:11:17;24.00;1.00
6662;DHT22;3367;48.714;8.994;2022-08-01T06:13:45;24.20;1.00
6662;DHT22;3367;48.714;8.994;2022-08-01T06:16:12;24.40;1.00
6662;DHT22;3367;48.714;8.994;2022-08-01T06:18:39;24.70;1.00
6662;DHT22;3367;48.714;8.994;2022-08-01T06:21:05;24.90;1.00
6662;DHT22;3367;48.714;8.994;2022-08-01T06:23:32;25.30;1.00
6662;DHT22;3367;48.714;8.994;2022-08-01T06:25:59;25.20;1.00
6662;DHT22;3367;48.714;8.994;2022-08-01T06:28:26;25.40;1.00
6662;DHT22;3367;48.714;8.994;2022-08-01T06:30:54;25.30;1.00
6662;DHT22;3367;48.714;8.994;2022-08-01T06:33:21;25.60;1.00
6662;DHT22;3367;48.714;8.994;2022-08-01T06:35:48;25.70;1.00
6662;DHT22;3367;48.714;8.994;2022-08-01T06:38:15;26.00;1.00
6662;DHT22;3367;48.714;8.994;2022-08-01T06:40:41;26.20;1.00
6662;DHT22;3367;48.714;8.994;2022-08-01T06:43:08;26.60;1.00
6662;DHT22;3367;48.714;8.994;2022-08-01T06:45:37;26.60;1.00
6662;DHT22;3367;48.714;8.994;2022-08-01T06:48:05;26.90;1.00
6662;DHT22;3367;48.714;8.994;2022-08-01T06:50:32;27.00;1.00
6662;DHT22;3367;48.714;8.994;2022-08-01T06:53:01;26.60;1.00
6662;DHT22;3367;48.714;8.994;2022-08-01T06:55:28;26.50;1.00
6662;DHT22;3367;48.714;8.994;2022-08-01T06:57:54;26.50;1.00
6662;DHT22;3367;48.714;8.994;2022-08-01T07:00:23;26.20;1.00
6662;DHT22;3367;48.714;8.994;2022-08-01T07:02:50;26.60;1.00
6662;DHT22;3367;48.714;8.994;2022-08-01T07:05:19;26.70;1.00
6662;DHT22;3367;48.714;8.994;2022-08-01T07:07:46;26.70;1.00
6662;DHT22;3367;48.714;8.994;2022-08-01T07:10:13;26.90;1.00
6662;DHT22;3367;48.714;8.994;2022-08-01T07:12:40;26.70;1.00
6662;DHT22;3367;48.714;8.994;2022-08-01T07:15:08;26.70;1.00
6662;DHT22;3367;48.714;8.994;2022-08-01T07:17:39;27.10;1.00
6662;DHT22;3367;48.714;8.994;2022-08-01T07:20:07;27.10;1.00
6662;DHT22;3367;48.714;8.994;2022-08-01T07:22:36;27.10;1.00
6662;DHT22;3367;48.714;8.994;2022-08-01T07:25:04;27.20;1.00
6662;DHT22;3367;48.714;8.994;2022-08-01T07:27:32;27.40;1.00
6662;DHT22;3367;48.714;8.994;2022-08-01T07:29:58;27.30;1.00
6662;DHT22;3367;48.714;8.994;2022-08-01T07:32:25;27.40;1.00
6662;DHT22;3367;48.714;8.994;2022-08-01T07:34:54;27.60;1.00
6662;DHT22;3367;48.714;8.994;2022-08-01T07:37:21;27.50;1.00
6662;DHT22;3367;48.714;8.994;2022-08-01T07:39:50;27.60;1.00
6662;DHT22;3367;48.714;8.994;2022-08-01T07:42:17;27.50;1.00
6662;DHT22;3367;48.714;8.994;2022-08-01T07:44:44;27.80;1.00
6662;DHT22;3367;48.714;8.994;2022-08-01T07:47:11;27.50;1.00
6662;DHT22;3367;48.714;8.994;2022-08-01T07:49:38;27.60;1.00
6662;DHT22;3367;48.714;8.994;2022-08-01T07:52:05;27.60;1.00
6662;DHT22;3367;48.714;8.994;2022-08-01T07:54:32;27.80;1.00
6662;DHT22;3367;48.714;8.994;2022-08-01T07:57:00;27.90;1.00
6662;DHT22;3367;48.714;8.994;2022-08-01T07:59:27;28.00;1.00
6662;DHT22;3367;48.714;8.994;2022-08-01T08:01:54;27.70;1.00
6662;DHT22;3367;48.714;8.994;2022-08-01T08:04:21;28.20;1.00
6662;DHT22;3367;48.714;8.994;2022-08-01T08:06:48;27.70;1.00
6662;DHT22;3367;48.714;8.994;2022-08-01T08:09:15;27.60;1.00
6662;DHT22;3367;48.714;8.994;2022-08-01T08:11:42;27.80;1.00
6662;DHT22;3367;48.714;8.994;2022-08-01T08:14:11;27.40;1.00
6662;DHT22;3367;48.714;8.994;2022-08-01T08:16:38;26.90;1.00
6662;DHT22;3367;48.714;8.994;2022-08-01T08:19:05;26.60;1.00
6662;DHT22;3367;48.714;8.994;2022-08-01T08:21:32;26.60;1.00
6662;DHT22;3367;48.714;8.994;2022-08-01T08:23:59;26.40;1.00
6662;DHT22;3367;48.714;8.994;2022-08-01T08:26:44;26.20;1.00
6662;DHT22;3367;48.714;8.994;2022-08-01T08:29:15;26.10;1.00
6662;DHT22;3367;48.714;8.994;2022-08-01T08:31:42;26.20;1.00
6662;DHT22;3367;48.714;8.994;2022-08-01T08:34:12;26.00;1.00
6662;DHT22;3367;48.714;8.994;2022-08-01T08:36:39;26.00;1.00
6662;DHT22;3367;48.714;8.994;2022-08-01T08:39:06;25.90;1.00
6662;DHT22;3367;48.714;8.994;2022-08-01T08:41:34;25.90;1.00
6662;DHT22;3367;48.714;8.994;2022-08-01T08:44:01;26.10;1.00
6662;DHT22;3367;48.714;8.994;2022-08-01T08:46:31;26.50;1.00
6662;DHT22;3367;48.714;8.994;2022-08-01T08:49:00;26.80;1.00
6662;DHT22;3367;48.714;8.994;2022-08-01T08:51:30;26.80;1.00
6662;DHT22;3367;48.714;8.994;2022-08-01T08:53:58;26.60;1.00
6662;DHT22;3367;48.714;8.994;2022-08-01T08:56:26;26.60;1.00
6662;DHT22;3367;48.714;8.994;2022-08-01T08:58:55;26.40;1.00
6662;DHT22;3367;48.714;8.994;2022-08-01T09:01:23;26.00;1.00
6662;DHT22;3367;48.714;8.994;2022-08-01T09:03:51;25.60;1.00
6662;DHT22;3367;48.714;8.994;2022-08-01T09:06:19;25.10;1.00
6662;DHT22;3367;48.714;8.994;2022-08-01T09:08:46;24.90;1.00
6662;DHT22;3367;48.714;8.994;2022-08-01T09:11:13;24.80;1.00
6662;DHT22;3367;48.714;8.994;2022-08-01T09:13:40;24.80;1.00
6662;DHT22;3367;48.714;8.994;2022-08-01T09:16:07;24.80;1.00
6662;DHT22;3367;48.714;8.994;2022-08-01T09:18:37;24.80;1.00
6662;DHT22;3367;48.714;8.994;2022-08-01T09:21:15;24.90;1.00
6662;DHT22;3367;48.714;8.994;2022-08-01T09:23:47;25.30;1.00
6662;DHT22;3367;48.714;8.994;2022-08-01T09:26:17;25.30;1.00
6662;DHT22;3367;48.714;8.994;2022-08-01T09:28:48;25.20;1.00
6662;DHT22;3367;48.714;8.994;2022-08-01T09:31:19;25.00;1.00
6662;DHT22;3367;48.714;8.994;2022-08-01T09:33:53;25.20;1.00
6662;DHT22;3367;48.714;8.994;2022-08-01T09:36:23;25.10;1.00
6662;DHT22;3367;48.714;8.994;2022-08-01T09:38:52;24.90;1.00
6662;DHT22;3367;48.714;8.994;2022-08-01T09:41:29;24.70;1.00
6662;DHT22;3367;48.714;8.994;2022-08-01T09:43:57;24.80;1.00
6662;DHT22;3367;48.714;8.994;2022-08-01T09:46:34;25.00;1.00
6662;DHT22;3367;48.714;8.994;2022-08-01T09:49:03;25.20;1.00
6662;DHT22;3367;48.714;8.994;2022-08-01T09:51:34;25.30;1.00
6662;DHT22;3367;48.714;8.994;2022-08-01T09:54:02;25.20;1.00
6662;DHT22;3367;48.714;8.994;2022-08-01T09:56:36;25.30;1.00
6662;DHT22;3367;48.714;8.994;2022-08-01T09:59:04;25.50;1.00
6662;DHT22;3367;48.714;8.994;2022-08-01T10:01:42;25.70;1.00
6662;DHT22;3367;48.714;8.994;2022-08-01T10:04:11;25.80;1.00
6662;DHT22;3367;48.714;8.994;2022-08-01T10:06:44;25.70;1.00
6662;DHT22;3367;48.714;8.994;2022-08-01T10:09:28;25.50;1.00
6662;DHT22;3367;48.714;8.994;2022-08-01T10:11:56;25.40;1.00
6662;DHT22;3367;48.714;8.994;2022-08-01T10:14:27;25.50;1.00
6662;DHT22;3367;48.714;8.994;2022-08-01T10:16:56;25.50;1.00
6662;DHT22;3367;48.714;8.994;2022-08-01T10:19:29;25.40;1.00
6662;DHT22;3367;48.714;8.994;2022-08-01T10:22:00;25.70;1.00
6662;DHT22;3367;48.714;8.994;2022-08-01T10:24:29;25.90;1.00
6662;DHT22;3367;48.714;8.994;2022-08-01T10:26:58;25.90;1.00
6662;DHT22;3367;48.714;8.994;2022-08-01T10:29:33;25.90;1.00
6662;DHT22;3367;48.714;8.994;2022-08-01T10:32:01;26.20;1.00
6662;DHT22;3367;48.714;8.994;2022-08-01T10:34:30;26.20;1.00
6662;DHT22;3367;48.714;8.994;2022-08-01T10:36:59;26.20;1.00
6662;DHT22;3367;48.714;8.994;2022-08-01T10:39:26;26.00;1.00
6662;DHT22;3367;48.714;8.994;2022-08-01T10:41:55;25.80;1.00
6662;DHT22;3367;48.714;8.994;2022-08-01T10:44:23;25.70;1.00
6662;DHT22;3367;48.714;8.994;2022-08-01T10:46:54;25.70;1.00
6662;DHT22;3367;48.714;8.994;2022-08-01T10:49:25;25.70;1.00
6662;DHT22;3367;48.714;8.994;2022-08-01T10:51:52;25.90;1.00
6662;DHT22;3367;48.714;8.994;2022-08-01T10:54:24;26.00;1.00
6662;DHT22;3367;48.714;8.994;2022-08-01T10:56:52;26.10;1.00
6662;DHT22;3367;48.714;8.994;2022-08-01T10:59:21;26.20;1.00
6662;DHT22;3367;48.714;8.994;2022-08-01T11:01:56;26.10;1.00
6662;DHT22;3367;48.714;8.994;2022-08-01T11:04:34;26.10;1.00
6662;DHT22;3367;48.714;8.994;2022-08-01T11:07:12;26.20;1.00
6662;DHT22;3367;48.714;8.994;2022-08-01T11:09:46;26.20;1.00
6662;DHT22;3367;48.714;8.994;2022-08-01T11:12:15;26.30;1.00
6662;DHT22;3367;48.714;8.994;2022-08-01T11:17:51;25.90;1.00
6662;DHT22;3367;48.714;8.994;2022-08-01T11:20:19;25.80;1.00
6662;DHT22;3367;48.714;8.994;2022-08-01T11:26:17;25.70;1.00
6662;DHT22;3367;48.714;8.994;2022-08-01T11:28:46;25.60;1.00
6662;DHT22;3367;48.714;8.994;2022-08-01T11:31:33;25.60;1.00
6662;DHT22;3367;48.714;8.994;2022-08-01T11:34:00;25.70;1.00
6662;DHT22;3367;48.714;8.994;2022-08-01T11:36:28;25.60;1.00
6662;DHT22;3367;48.714;8.994;2022-08-01T11:42:19;25.50;1.00
6662;DHT22;3367;48.714;8.994;2022-08-01T11:44:50;25.50;1.00
6662;DHT22;3367;48.714;8.994;2022-08-01T11:47:17;25.50;1.00
6662;DHT22;3367;48.714;8.994;2022-08-01T11:49:46;25.50;1.00
6662;DHT22;3367;48.714;8.994;2022-08-01T11:52:16;25.50;1.00
6662;DHT22;3367;48.714;8.994;2022-08-01T11:54:44;25.40;1.00
6662;DHT22;3367;48.714;8.994;2022-08-01T11:57:14;25.40;1.00
6662;DHT22;3367;48.714;8.994;2022-08-01T11:59:44;25.40;1.00
6662;DHT22;3367;48.714;8.994;2022-08-01T12:02:18;25.50;1.00
6662;DHT22;3367;48.714;8.994;2022-08-01T12:04:47;25.50;1.00
6662;DHT22;3367;48.714;8.994;2022-08-01T12:07:15;25.80;1.00
6662;DHT22;3367;48.714;8.994;2022-08-01T12:09:42;26.00;1.00
6662;DHT22;3367;48.714;8.994;2022-08-01T12:12:09;26.10;1.00
6662;DHT22;3367;48.714;8.994;2022-08-01T12:14:37;26.00;1.00
6662;DHT22;3367;48.714;8.994;2022-08-01T12:17:06;26.10;1.00
6662;DHT22;3367;48.714;8.994;2022-08-01T12:19:33;26.10;1.00
6662;DHT22;3367;48.714;8.994;2022-08-01T12:22:10;26.10;1.00
6662;DHT22;3367;48.714;8.994;2022-08-01T12:24:38;26.20;1.00
6662;DHT22;3367;48.714;8.994;2022-08-01T12:27:07;26.00;1.00
6662;DHT22;3367;48.714;8.994;2022-08-01T12:29:36;25.90;1.00
6662;DHT22;3367;48.714;8.994;2022-08-01T12:32:15;25.90;1.00
6662;DHT22;3367;48.714;8.994;2022-08-01T12:34:46;25.90;1.00
6662;DHT22;3367;48.714;8.994;2022-08-01T12:37:13;26.00;1.00
6662;DHT22;3367;48.714;8.994;2022-08-01T12:39:40;26.00;1.00
6662;DHT22;3367;48.714;8.994;2022-08-01T12:42:08;26.20;1.00
6662;DHT22;3367;48.714;8.994;2022-08-01T12:44:36;26.40;1.00
6662;DHT22;3367;48.714;8.994;2022-08-01T12:47:06;26.50;1.00
6662;DHT22;3367;48.714;8.994;2022-08-01T12:49:35;26.50;1.00
6662;DHT22;3367;48.714;8.994;2022-08-01T12:52:04;26.50;1.00
6662;DHT22;3367;48.714;8.994;2022-08-01T12:54:31;26.60;1.00
6662;DHT22;3367;48.714;8.994;2022-08-01T12:57:24;26.70;1.00
6662;DHT22;3367;48.714;8.994;2022-08-01T12:59:52;26.80;1.00
6662;DHT22;3367;48.714;8.994;2022-08-01T13:02:31;26.80;1.00
6662;DHT22;3367;48.714;8.994;2022-08-01T13:04:59;26.60;1.00
6662;DHT22;3367;48.714;8.994;2022-08-01T13:07:35;26.60;1.00
6662;DHT22;3367;48.714;8.994;2022-08-01T13:10:03;26.30;1.00
6662;DHT22;3367;48.714;8.994;2022-08-01T13:12:30;26.20;1.00
6662;DHT22;3367;48.714;8.994;2022-08-01T13:14:57;26.20;1.00
6662;DHT22;3367;48.714;8.994;2022-08-01T13:17:32;26.30;1.00
6662;DHT22;3367;48.714;8.994;2022-08-01T13:20:01;26.50;1.00
6662;DHT22;3367;48.714;8.994;2022-08-01T13:22:35;26.80;1.00
6662;DHT22;3367;48.714;8.994;2022-08-01T13:25:12;27.00;1.00
6662;DHT22;3367;48.714;8.994;2022-08-01T13:27:39;27.20;1.00
6662;DHT22;3367;48.714;8.994;2022-08-01T13:30:15;27.20;1.00
6662;DHT22;3367;48.714;8.994;2022-08-01T13:32:44;27.30;1.00
6662;DHT22;3367;48.714;8.994;2022-08-01T13:35:12;27.30;1.00
6662;DHT22;3367;48.714;8.994;2022-08-01T13:37:40;27.30;1.00
6662;DHT22;3367;48.714;8.994;2022-08-01T13:40:09;27.40;1.00
6662;DHT22;3367;48.714;8.994;2022-08-01T13:42:37;27.50;1.00
6662;DHT22;3367;48.714;8.994;2022-08-01T13:45:05;27.40;1.00
6662;DHT22;3367;48.714;8.994;2022-08-01T13:47:36;27.30;1.00
6662;DHT22;3367;48.714;8.994;2022-08-01T13:50:05;27.10;1.00
6662;DHT22;3367;48.714;8.994;2022-08-01T13:52:31;27.00;1.00
6662;DHT22;3367;48.714;8.994;2022-08-01T13:54:58;26.90;1.00
6662;DHT22;3367;48.714;8.994;2022-08-01T13:57:25;26.80;1.00
6662;DHT22;3367;48.714;8.994;2022-08-01T13:59:52;26.70;1.00
6662;DHT22;3367;48.714;8.994;2022-08-01T14:02:19;26.80;1.00
6662;DHT22;3367;48.714;8.994;2022-08-01T14:04:46;26.70;1.00
6662;DHT22;3367;48.714;8.994;2022-08-01T14:07:14;26.80;1.00
6662;DHT22;3367;48.714;8.994;2022-08-01T14:09:42;26.70;1.00
6662;DHT22;3367;48.714;8.994;2022-08-01T14:12:08;26.60;1.00
6662;DHT22;3367;48.714;8.994;2022-08-01T14:14:35;26.70;1.00
6662;DHT22;3367;48.714;8.994;2022-08-01T14:17:03;26.80;1.00
6662;DHT22;3367;48.714;8.994;2022-08-01T14:19:30;26.90;1.00
6662;DHT22;3367;48.714;8.994;2022-08-01T14:21:57;26.90;1.00
6662;DHT22;3367;48.714;8.994;2022-08-01T14:24:25;27.00;1.00
6662;DHT22;3367;48.714;8.994;2022-08-01T14:26:52;27.00;1.00
6662;DHT22;3367;48.714;8.994;2022-08-01T14:29:19;27.10;1.00
6662;DHT22;3367;48.714;8.994;2022-08-01T14:31:46;27.10;1.00
6662;DHT22;3367;48.714;8.994;2022-08-01T14:34:12;27.20;1.00
6662;DHT22;3367;48.714;8.994;2022-08-01T14:36:41;27.40;1.00
6662;DHT22;3367;48.714;8.994;2022-08-01T14:39:08;27.60;1.00
6662;DHT22;3367;48.714;8.994;2022-08-01T14:41:36;27.70;1.00
6662;DHT22;3367;48.714;8.994;2022-08-01T14:44:03;27.80;1.00
6662;DHT22;3367;48.714;8.994;2022-08-01T14:46:30;27.60;1.00
6662;DHT22;3367;48.714;8.994;2022-08-01T14:48:57;27.60;1.00
6662;DHT22;3367;48.714;8.994;2022-08-01T14:51:24;27.60;1.00
6662;DHT22;3367;48.714;8.994;2022-08-01T14:53:50;27.50;1.00
6662;DHT22;3367;48.714;8.994;2022-08-01T14:56:18;27.40;1.00
6662;DHT22;3367;48.714;8.994;2022-08-01T14:58:46;27.30;1.00
6662;DHT22;3367;48.714;8.994;2022-08-01T15:01:13;27.30;1.00
6662;DHT22;3367;48.714;8.994;2022-08-01T15:03:40;27.30;1.00
6662;DHT22;3367;48.714;8.994;2022-08-01T15:06:07;27.20;1.00
6662;DHT22;3367;48.714;8.994;2022-08-01T15:08:36;27.20;1.00
6662;DHT22;3367;48.714;8.994;2022-08-01T15:11:03;27.00;1.00
6662;DHT22;3367;48.714;8.994;2022-08-01T15:13:30;26.90;1.00
6662;DHT22;3367;48.714;8.994;2022-08-01T15:15:58;26.90;1.00
6662;DHT22;3367;48.714;8.994;2022-08-01T15:18:25;26.90;1.00
6662;DHT22;3367;48.714;8.994;2022-08-01T15:20:52;27.00;1.00
6662;DHT22;3367;48.714;8.994;2022-08-01T15:23:19;26.90;1.00
6662;DHT22;3367;48.714;8.994;2022-08-01T15:25:46;27.00;1.00
6662;DHT22;3367;48.714;8.994;2022-08-01T15:28:13;26.90;1.00
6662;DHT22;3367;48.714;8.994;2022-08-01T15:30:40;26.80;1.00
6662;DHT22;3367;48.714;8.994;2022-08-01T15:33:08;26.80;1.00
6662;DHT22;3367;48.714;8.994;2022-08-01T15:35:35;26.80;1.00
6662;DHT22;3367;48.714;8.994;2022-08-01T15:38:02;26.80;1.00
6662;DHT22;3367;48.714;8.994;2022-08-01T15:40:29;26.80;1.00
6662;DHT22;3367;48.714;8.994;2022-08-01T15:42:59;26.80;1.00
6662;DHT22;3367;48.714;8.994;2022-08-01T15:45:26;26.70;1.00
6662;DHT22;3367;48.714;8.994;2022-08-01T15:47:54;26.60;1.00
6662;DHT22;3367;48.714;8.994;2022-08-01T15:50:22;26.70;1.00
6662;DHT22;3367;48.714;8.994;2022-08-01T15:52:49;26.60;1.00
6662;DHT22;3367;48.714;8.994;2022-08-01T15:55:16;26.60;1.00
6662;DHT22;3367;48.714;8.994;2022-08-01T15:57:43;26.60;1.00
6662;DHT22;3367;48.714;8.994;2022-08-01T16:00:10;26.50;1.00
6662;DHT22;3367;48.714;8.994;2022-08-01T16:02:37;26.50;1.00
6662;DHT22;3367;48.714;8.994;2022-08-01T16:05:05;26.50;1.00
6662;DHT22;3367;48.714;8.994;2022-08-01T16:07:33;26.40;1.00
6662;DHT22;3367;48.714;8.994;2022-08-01T16:10:00;26.40;1.00
6662;DHT22;3367;48.714;8.994;2022-08-01T16:12:27;26.30;1.00
6662;DHT22;3367;48.714;8.994;2022-08-01T16:14:54;26.30;1.00
6662;DHT22;3367;48.714;8.994;2022-08-01T16:17:21;26.30;1.00
6662;DHT22;3367;48.714;8.994;2022-08-01T16:19:48;26.20;1.00
6662;DHT22;3367;48.714;8.994;2022-08-01T16:22:15;26.20;1.00
6662;DHT22;3367;48.714;8.994;2022-08-01T16:24:43;26.00;1.00
6662;DHT22;3367;48.714;8.994;2022-08-01T16:27:10;26.00;1.00
6662;DHT22;3367;48.714;8.994;2022-08-01T16:29:37;25.90;1.00
6662;DHT22;3367;48.714;8.994;2022-08-01T16:32:04;25.90;1.00
6662;DHT22;3367;48.714;8.994;2022-08-01T16:34:32;25.90;1.00
6662;DHT22;3367;48.714;8.994;2022-08-01T16:37:00;25.80;1.00